sensor_id;sensor_type;location;lat;lon;timestamp;P1;durP1;ratioP1;P2;durP2;ratioP2
72728;SDS011;60843;52.062;4.508;2024-02-26T00:02:02;2.55;;;1.90;;
72728;SDS011;60843;52.062;4.508;2024-02-26T00:04:34;3.65;;;1.77;;
72728;SDS011;60843;52.062;4.508;2024-02-26T00:07:03;4.05;;;2.15;;
72728;SDS011;60843;52.062;4.508;2024-02-26T00:09:32;3.13;;;2.05;;
72728;SDS011;60843;52.062;4.508;2024-02-26T00:12:02;4.50;;;1.95;;
72728;SDS011;60843;52.062;4.508;2024-02-26T00:14:32;2.03;;;1.77;;
72728;SDS011;60843;52.062;4.508;2024-02-26T00:17:03;3.60;;;1.52;;
72728;SDS011;60843;52.062;4.508;2024-02-26T00:21:55;3.35;;;1.90;;
72728;SDS011;60843;52.062;4.508;2024-02-26T00:24:26;10.43;;;2.58;;
72728;SDS011;60843;52.062;4.508;2024-02-26T00:27:04;3.28;;;1.83;;
72728;SDS011;60843;52.062;4.508;2024-02-26T00:29:33;2.67;;;1.83;;
72728;SDS011;60843;52.062;4.508;2024-02-26T00:32:14;4.25;;;1.80;;
72728;SDS011;60843;52.062;4.508;2024-02-26T00:34:43;3.75;;;2.50;;
72728;SDS011;60843;52.062;4.508;2024-02-26T00:37:09;3.53;;;2.40;;
72728;SDS011;60843;52.062;4.508;2024-02-26T00:39:38;3.92;;;2.35;;
72728;SDS011;60843;52.062;4.508;2024-02-26T00:42:04;4.60;;;1.95;;
72728;SDS011;60843;52.062;4.508;2024-02-26T00:44:38;3.92;;;2.08;;
72728;SDS011;60843;52.062;4.508;2024-02-26T00:47:25;2.15;;;1.45;;
72728;SDS011;60843;52.062;4.508;2024-02-26T00:49:52;3.15;;;1.67;;
72728;SDS011;60843;52.062;4.508;2024-02-26T00:52:17;5.20;;;2.17;;
72728;SDS011;60843;52.062;4.508;2024-02-26T00:54:43;4.88;;;2.05;;
72728;SDS011;60843;52.062;4.508;2024-02-26T00:57:09;3.30;;;1.77;;
72728;SDS011;60843;52.062;4.508;2024-02-26T00:59:35;4.85;;;1.55;;
72728;SDS011;60843;52.062;4.508;2024-02-26T01:02:00;3.92;;;2.35;;
72728;SDS011;60843;52.062;4.508;2024-02-26T01:04:27;3.42;;;2.20;;
72728;SDS011;60843;52.062;4.508;2024-02-26T01:06:53;3.60;;;2.20;;
72728;SDS011;60843;52.062;4.508;2024-02-26T01:09:19;1.90;;;1.55;;
72728;SDS011;60843;52.062;4.508;2024-02-26T01:11:45;2.85;;;2.08;;
72728;SDS011;60843;52.062;4.508;2024-02-26T01:14:12;3.00;;;1.52;;
72728;SDS011;60843;52.062;4.508;2024-02-26T01:16:38;1.90;;;1.45;;
72728;SDS011;60843;52.062;4.508;2024-02-26T01:19:04;2.55;;;1.85;;
72728;SDS011;60843;52.062;4.508;2024-02-26T01:21:31;3.97;;;2.25;;
72728;SDS011;60843;52.062;4.508;2024-02-26T01:23:59;4.13;;;2.40;;
72728;SDS011;60843;52.062;4.508;2024-02-26T01:26:25;3.85;;;2.33;;
72728;SDS011;60843;52.062;4.508;2024-02-26T01:28:58;4.32;;;1.95;;
72728;SDS011;60843;52.062;4.508;2024-02-26T01:33:52;2.40;;;1.65;;
72728;SDS011;60843;52.062;4.508;2024-02-26T01:36:17;3.28;;;1.80;;
72728;SDS011;60843;52.062;4.508;2024-02-26T01:38:46;3.75;;;1.95;;
72728;SDS011;60843;52.062;4.508;2024-02-26T01:41:13;2.40;;;1.88;;
72728;SDS011;60843;52.062;4.508;2024-02-26T01:43:39;2.25;;;1.60;;
72728;SDS011;60843;52.062;4.508;2024-02-26T01:46:05;3.33;;;2.40;;
72728;SDS011;60843;52.062;4.508;2024-02-26T01:48:31;3.50;;;2.25;;
72728;SDS011;60843;52.062;4.508;2024-02-26T01:50:57;4.72;;;2.60;;
72728;SDS011;60843;52.062;4.508;2024-02-26T01:53:23;4.03;;;2.47;;
72728;SDS011;60843;52.062;4.508;2024-02-26T01:55:53;3.90;;;2.70;;
72728;SDS011;60843;52.062;4.508;2024-02-26T01:58:20;4.03;;;2.65;;
72728;SDS011;60843;52.062;4.508;2024-02-26T02:00:45;4.50;;;2.50;;
72728;SDS011;60843;52.062;4.508;2024-02-26T02:03:11;4.45;;;2.58;;
72728;SDS011;60843;52.062;4.508;2024-02-26T02:05:38;2.70;;;1.55;;
72728;SDS011;60843;52.062;4.508;2024-02-26T02:08:07;7.70;;;3.05;;
72728;SDS011;60843;52.062;4.508;2024-02-26T02:10:35;3.95;;;2.55;;
72728;SDS011;60843;52.062;4.508;2024-02-26T02:13:00;4.35;;;2.55;;
72728;SDS011;60843;52.062;4.508;2024-02-26T02:15:26;4.32;;;2.47;;
72728;SDS011;60843;52.062;4.508;2024-02-26T02:17:52;3.88;;;2.15;;
72728;SDS011;60843;52.062;4.508;2024-02-26T02:20:18;4.00;;;2.75;;
72728;SDS011;60843;52.062;4.508;2024-02-26T02:22:47;4.20;;;3.13;;
72728;SDS011;60843;52.062;4.508;2024-02-26T02:25:12;5.70;;;3.42;;
72728;SDS011;60843;52.062;4.508;2024-02-26T02:27:39;5.32;;;3.58;;
72728;SDS011;60843;52.062;4.508;2024-02-26T02:30:05;3.60;;;2.65;;
72728;SDS011;60843;52.062;4.508;2024-02-26T02:32:39;6.68;;;3.38;;
72728;SDS011;60843;52.062;4.508;2024-02-26T02:35:06;5.78;;;3.00;;
72728;SDS011;60843;52.062;4.508;2024-02-26T02:37:32;6.45;;;2.22;;
72728;SDS011;60843;52.062;4.508;2024-02-26T02:40:15;7.22;;;3.63;;
72728;SDS011;60843;52.062;4.508;2024-02-26T02:43:03;5.28;;;2.80;;
72728;SDS011;60843;52.062;4.508;2024-02-26T02:45:35;4.53;;;2.97;;
72728;SDS011;60843;52.062;4.508;2024-02-26T02:48:07;6.95;;;3.70;;
72728;SDS011;60843;52.062;4.508;2024-02-26T02:50:35;2.42;;;1.50;;
72728;SDS011;60843;52.062;4.508;2024-02-26T02:53:04;4.53;;;3.00;;
72728;SDS011;60843;52.062;4.508;2024-02-26T02:55:33;4.05;;;2.38;;
72728;SDS011;60843;52.062;4.508;2024-02-26T02:57:58;3.78;;;2.22;;
72728;SDS011;60843;52.062;4.508;2024-02-26T03:00:27;4.15;;;2.75;;
72728;SDS011;60843;52.062;4.508;2024-02-26T03:02:59;4.15;;;2.63;;
72728;SDS011;60843;52.062;4.508;2024-02-26T03:05:32;6.25;;;3.20;;
72728;SDS011;60843;52.062;4.508;2024-02-26T03:08:01;6.97;;;3.53;;
72728;SDS011;60843;52.062;4.508;2024-02-26T03:10:32;5.80;;;3.03;;
72728;SDS011;60843;52.062;4.508;2024-02-26T03:13:01;3.10;;;2.38;;
72728;SDS011;60843;52.062;4.508;2024-02-26T03:15:35;5.32;;;2.38;;
72728;SDS011;60843;52.062;4.508;2024-02-26T03:18:03;5.30;;;3.00;;
72728;SDS011;60843;52.062;4.508;2024-02-26T03:20:30;6.03;;;3.08;;
72728;SDS011;60843;52.062;4.508;2024-02-26T03:22:59;4.40;;;2.65;;
72728;SDS011;60843;52.062;4.508;2024-02-26T03:25:36;4.18;;;2.47;;
72728;SDS011;60843;52.062;4.508;2024-02-26T03:28:01;4.78;;;2.53;;
72728;SDS011;60843;52.062;4.508;2024-02-26T03:30:33;5.22;;;3.00;;
72728;SDS011;60843;52.062;4.508;2024-02-26T03:33:04;2.40;;;1.40;;
72728;SDS011;60843;52.062;4.508;2024-02-26T03:35:32;2.83;;;1.67;;
72728;SDS011;60843;52.062;4.508;2024-02-26T03:38:03;5.43;;;3.33;;
72728;SDS011;60843;52.062;4.508;2024-02-26T03:40:29;4.15;;;2.25;;
72728;SDS011;60843;52.062;4.508;2024-02-26T03:42:57;12.07;;;3.53;;
72728;SDS011;60843;52.062;4.508;2024-02-26T03:45:29;6.85;;;3.90;;
72728;SDS011;60843;52.062;4.508;2024-02-26T03:47:55;3.90;;;2.33;;
72728;SDS011;60843;52.062;4.508;2024-02-26T03:50:21;5.38;;;3.00;;
72728;SDS011;60843;52.062;4.508;2024-02-26T03:52:47;4.70;;;2.65;;
72728;SDS011;60843;52.062;4.508;2024-02-26T03:55:13;5.70;;;3.25;;
72728;SDS011;60843;52.062;4.508;2024-02-26T03:57:38;5.97;;;3.22;;
72728;SDS011;60843;52.062;4.508;2024-02-26T04:00:05;5.25;;;3.13;;
72728;SDS011;60843;52.062;4.508;2024-02-26T04:02:31;5.18;;;3.20;;
72728;SDS011;60843;52.062;4.508;2024-02-26T04:04:58;4.88;;;3.03;;
72728;SDS011;60843;52.062;4.508;2024-02-26T04:07:24;6.45;;;3.08;;
72728;SDS011;60843;52.062;4.508;2024-02-26T04:09:50;5.60;;;3.63;;
72728;SDS011;60843;52.062;4.508;2024-02-26T04:12:15;9.25;;;3.63;;
72728;SDS011;60843;52.062;4.508;2024-02-26T04:14:41;7.30;;;3.33;;
72728;SDS011;60843;52.062;4.508;2024-02-26T04:17:07;6.90;;;3.63;;
72728;SDS011;60843;52.062;4.508;2024-02-26T04:19:33;5.93;;;3.58;;
72728;SDS011;60843;52.062;4.508;2024-02-26T04:21:59;8.73;;;3.88;;
72728;SDS011;60843;52.062;4.508;2024-02-26T04:24:25;4.35;;;2.20;;
72728;SDS011;60843;52.062;4.508;2024-02-26T04:26:51;7.18;;;4.35;;
72728;SDS011;60843;52.062;4.508;2024-02-26T04:29:17;5.55;;;3.00;;
72728;SDS011;60843;52.062;4.508;2024-02-26T04:31:43;7.75;;;4.00;;
72728;SDS011;60843;52.062;4.508;2024-02-26T04:34:11;6.68;;;3.72;;
72728;SDS011;60843;52.062;4.508;2024-02-26T04:36:36;7.07;;;3.55;;
72728;SDS011;60843;52.062;4.508;2024-02-26T04:39:02;6.93;;;3.72;;
72728;SDS011;60843;52.062;4.508;2024-02-26T04:41:28;5.68;;;3.65;;
72728;SDS011;60843;52.062;4.508;2024-02-26T04:44:06;8.32;;;3.80;;
72728;SDS011;60843;52.062;4.508;2024-02-26T04:46:41;6.75;;;3.58;;
72728;SDS011;60843;52.062;4.508;2024-02-26T04:49:17;6.30;;;3.80;;
72728;SDS011;60843;52.062;4.508;2024-02-26T04:51:43;8.15;;;4.13;;
72728;SDS011;60843;52.062;4.508;2024-02-26T04:54:09;5.38;;;2.53;;
72728;SDS011;60843;52.062;4.508;2024-02-26T04:56:38;6.82;;;3.70;;
72728;SDS011;60843;52.062;4.508;2024-02-26T04:59:04;7.80;;;3.92;;
72728;SDS011;60843;52.062;4.508;2024-02-26T05:01:30;5.82;;;3.47;;
72728;SDS011;60843;52.062;4.508;2024-02-26T05:03:59;5.00;;;2.70;;
72728;SDS011;60843;52.062;4.508;2024-02-26T05:06:27;7.65;;;3.17;;
72728;SDS011;60843;52.062;4.508;2024-02-26T05:09:03;6.97;;;3.58;;
72728;SDS011;60843;52.062;4.508;2024-02-26T05:11:32;7.35;;;3.60;;
72728;SDS011;60843;52.062;4.508;2024-02-26T05:14:13;6.50;;;3.55;;
72728;SDS011;60843;52.062;4.508;2024-02-26T05:16:47;3.97;;;1.98;;
72728;SDS011;60843;52.062;4.508;2024-02-26T05:19:16;3.60;;;2.13;;
72728;SDS011;60843;52.062;4.508;2024-02-26T05:21:41;5.50;;;3.25;;
72728;SDS011;60843;52.062;4.508;2024-02-26T05:24:09;8.93;;;4.60;;
72728;SDS011;60843;52.062;4.508;2024-02-26T05:26:35;5.63;;;2.80;;
72728;SDS011;60843;52.062;4.508;2024-02-26T05:29:00;5.78;;;3.33;;
72728;SDS011;60843;52.062;4.508;2024-02-26T05:31:29;7.18;;;3.92;;
72728;SDS011;60843;52.062;4.508;2024-02-26T05:33:55;9.55;;;4.50;;
72728;SDS011;60843;52.062;4.508;2024-02-26T05:36:27;6.72;;;3.10;;
72728;SDS011;60843;52.062;4.508;2024-02-26T05:39:01;8.02;;;4.10;;
72728;SDS011;60843;52.062;4.508;2024-02-26T05:41:31;6.28;;;3.33;;
72728;SDS011;60843;52.062;4.508;2024-02-26T05:44:03;8.60;;;3.53;;
72728;SDS011;60843;52.062;4.508;2024-02-26T05:46:31;7.03;;;3.42;;
72728;SDS011;60843;52.062;4.508;2024-02-26T05:48:59;9.38;;;4.35;;
72728;SDS011;60843;52.062;4.508;2024-02-26T05:51:25;5.60;;;2.92;;
72728;SDS011;60843;52.062;4.508;2024-02-26T05:53:58;9.65;;;3.90;;
72728;SDS011;60843;52.062;4.508;2024-02-26T05:56:25;6.07;;;2.42;;
72728;SDS011;60843;52.062;4.508;2024-02-26T05:58:54;7.72;;;3.92;;
72728;SDS011;60843;52.062;4.508;2024-02-26T06:03:49;4.38;;;2.05;;
72728;SDS011;60843;52.062;4.508;2024-02-26T06:06:23;3.00;;;1.88;;
72728;SDS011;60843;52.062;4.508;2024-02-26T06:08:52;6.72;;;3.55;;
72728;SDS011;60843;52.062;4.508;2024-02-26T06:13:59;5.93;;;3.40;;
72728;SDS011;60843;52.062;4.508;2024-02-26T06:16:28;9.98;;;4.57;;
72728;SDS011;60843;52.062;4.508;2024-02-26T06:18:54;8.38;;;3.95;;
72728;SDS011;60843;52.062;4.508;2024-02-26T06:21:21;7.78;;;3.20;;
72728;SDS011;60843;52.062;4.508;2024-02-26T06:23:53;6.97;;;3.03;;
72728;SDS011;60843;52.062;4.508;2024-02-26T06:26:19;8.27;;;3.30;;
72728;SDS011;60843;52.062;4.508;2024-02-26T06:28:48;8.60;;;3.50;;
72728;SDS011;60843;52.062;4.508;2024-02-26T06:31:17;6.75;;;2.88;;
72728;SDS011;60843;52.062;4.508;2024-02-26T06:33:45;10.85;;;5.63;;
72728;SDS011;60843;52.062;4.508;2024-02-26T06:36:11;9.63;;;4.85;;
72728;SDS011;60843;52.062;4.508;2024-02-26T06:38:36;8.98;;;4.90;;
72728;SDS011;60843;52.062;4.508;2024-02-26T06:41:05;13.05;;;5.43;;
72728;SDS011;60843;52.062;4.508;2024-02-26T06:43:34;5.95;;;3.40;;
72728;SDS011;60843;52.062;4.508;2024-02-26T06:46:00;11.68;;;5.47;;
72728;SDS011;60843;52.062;4.508;2024-02-26T06:48:29;9.32;;;4.47;;
72728;SDS011;60843;52.062;4.508;2024-02-26T06:50:55;9.35;;;4.78;;
72728;SDS011;60843;52.062;4.508;2024-02-26T06:53:22;8.77;;;4.15;;
72728;SDS011;60843;52.062;4.508;2024-02-26T06:55:48;13.25;;;6.43;;
72728;SDS011;60843;52.062;4.508;2024-02-26T06:58:15;8.23;;;4.97;;
72728;SDS011;60843;52.062;4.508;2024-02-26T07:00:42;12.93;;;6.20;;
72728;SDS011;60843;52.062;4.508;2024-02-26T07:03:11;9.70;;;4.30;;
72728;SDS011;60843;52.062;4.508;2024-02-26T07:05:39;6.88;;;3.40;;
72728;SDS011;60843;52.062;4.508;2024-02-26T07:08:17;14.63;;;7.47;;
72728;SDS011;60843;52.062;4.508;2024-02-26T07:10:42;14.50;;;6.60;;
72728;SDS011;60843;52.062;4.508;2024-02-26T07:13:20;5.45;;;3.50;;
72728;SDS011;60843;52.062;4.508;2024-02-26T07:15:46;10.30;;;5.03;;
72728;SDS011;60843;52.062;4.508;2024-02-26T07:20:40;5.55;;;3.00;;
72728;SDS011;60843;52.062;4.508;2024-02-26T07:23:13;11.88;;;5.85;;
72728;SDS011;60843;52.062;4.508;2024-02-26T07:25:40;16.70;;;5.88;;
72728;SDS011;60843;52.062;4.508;2024-02-26T07:28:09;8.23;;;4.88;;
72728;SDS011;60843;52.062;4.508;2024-02-26T07:30:39;6.93;;;4.75;;
72728;SDS011;60843;52.062;4.508;2024-02-26T07:33:05;11.13;;;6.55;;
72728;SDS011;60843;52.062;4.508;2024-02-26T07:35:34;9.48;;;5.07;;
72728;SDS011;60843;52.062;4.508;2024-02-26T07:38:29;9.80;;;4.85;;
72728;SDS011;60843;52.062;4.508;2024-02-26T07:41:04;8.95;;;4.97;;
72728;SDS011;60843;52.062;4.508;2024-02-26T07:43:33;10.63;;;5.40;;
72728;SDS011;60843;52.062;4.508;2024-02-26T07:46:03;6.60;;;3.58;;
72728;SDS011;60843;52.062;4.508;2024-02-26T07:48:29;10.18;;;4.30;;
72728;SDS011;60843;52.062;4.508;2024-02-26T07:50:55;8.70;;;4.05;;
72728;SDS011;60843;52.062;4.508;2024-02-26T07:53:27;6.18;;;3.42;;
72728;SDS011;60843;52.062;4.508;2024-02-26T07:56:01;9.27;;;4.53;;
72728;SDS011;60843;52.062;4.508;2024-02-26T07:58:37;5.90;;;2.70;;
72728;SDS011;60843;52.062;4.508;2024-02-26T08:01:09;6.30;;;3.25;;
72728;SDS011;60843;52.062;4.508;2024-02-26T08:03:40;5.57;;;3.28;;
72728;SDS011;60843;52.062;4.508;2024-02-26T08:06:09;7.15;;;3.58;;
72728;SDS011;60843;52.062;4.508;2024-02-26T08:08:39;6.53;;;3.55;;
72728;SDS011;60843;52.062;4.508;2024-02-26T08:11:05;3.75;;;2.35;;
72728;SDS011;60843;52.062;4.508;2024-02-26T08:13:32;7.15;;;3.38;;
72728;SDS011;60843;52.062;4.508;2024-02-26T08:15:58;4.97;;;3.13;;
72728;SDS011;60843;52.062;4.508;2024-02-26T08:18:28;3.03;;;2.08;;
72728;SDS011;60843;52.062;4.508;2024-02-26T08:20:54;4.82;;;2.72;;
72728;SDS011;60843;52.062;4.508;2024-02-26T08:23:22;4.07;;;2.50;;
72728;SDS011;60843;52.062;4.508;2024-02-26T08:25:48;7.05;;;3.80;;
72728;SDS011;60843;52.062;4.508;2024-02-26T08:28:20;3.88;;;2.33;;
72728;SDS011;60843;52.062;4.508;2024-02-26T08:30:46;3.47;;;2.22;;
72728;SDS011;60843;52.062;4.508;2024-02-26T08:33:12;4.40;;;2.03;;
72728;SDS011;60843;52.062;4.508;2024-02-26T08:35:41;3.72;;;2.63;;
72728;SDS011;60843;52.062;4.508;2024-02-26T08:38:16;4.53;;;2.78;;
72728;SDS011;60843;52.062;4.508;2024-02-26T08:40:45;4.57;;;2.67;;
72728;SDS011;60843;52.062;4.508;2024-02-26T08:43:11;3.78;;;1.88;;
72728;SDS011;60843;52.062;4.508;2024-02-26T08:45:42;3.60;;;2.63;;
72728;SDS011;60843;52.062;4.508;2024-02-26T08:48:08;2.72;;;1.50;;
72728;SDS011;60843;52.062;4.508;2024-02-26T08:50:34;3.95;;;2.05;;
72728;SDS011;60843;52.062;4.508;2024-02-26T08:53:01;4.25;;;1.83;;
72728;SDS011;60843;52.062;4.508;2024-02-26T08:55:33;3.85;;;2.42;;
72728;SDS011;60843;52.062;4.508;2024-02-26T08:58:01;3.53;;;1.83;;
72728;SDS011;60843;52.062;4.508;2024-02-26T09:00:27;5.97;;;1.50;;
72728;SDS011;60843;52.062;4.508;2024-02-26T09:02:53;2.78;;;2.08;;
72728;SDS011;60843;52.062;4.508;2024-02-26T09:05:19;3.40;;;2.00;;
72728;SDS011;60843;52.062;4.508;2024-02-26T09:07:45;3.53;;;2.10;;
72728;SDS011;60843;52.062;4.508;2024-02-26T09:10:11;8.25;;;2.40;;
72728;SDS011;60843;52.062;4.508;2024-02-26T09:12:38;3.25;;;2.05;;
72728;SDS011;60843;52.062;4.508;2024-02-26T09:15:05;5.28;;;2.55;;
72728;SDS011;60843;52.062;4.508;2024-02-26T09:17:32;3.83;;;2.15;;
72728;SDS011;60843;52.062;4.508;2024-02-26T09:19:59;2.40;;;1.67;;
72728;SDS011;60843;52.062;4.508;2024-02-26T09:22:25;2.85;;;1.80;;
72728;SDS011;60843;52.062;4.508;2024-02-26T09:24:53;2.40;;;1.52;;
72728;SDS011;60843;52.062;4.508;2024-02-26T09:27:22;3.42;;;2.00;;
72728;SDS011;60843;52.062;4.508;2024-02-26T09:29:49;2.53;;;1.42;;
72728;SDS011;60843;52.062;4.508;2024-02-26T09:32:15;3.78;;;2.30;;
72728;SDS011;60843;52.062;4.508;2024-02-26T09:34:43;3.75;;;2.25;;
72728;SDS011;60843;52.062;4.508;2024-02-26T09:37:08;5.53;;;2.47;;
72728;SDS011;60843;52.062;4.508;2024-02-26T09:39:35;5.60;;;2.25;;
72728;SDS011;60843;52.062;4.508;2024-02-26T09:42:02;2.58;;;1.85;;
72728;SDS011;60843;52.062;4.508;2024-02-26T09:44:30;4.80;;;2.33;;
72728;SDS011;60843;52.062;4.508;2024-02-26T09:47:01;3.90;;;2.10;;
72728;SDS011;60843;52.062;4.508;2024-02-26T09:49:31;2.85;;;1.67;;
72728;SDS011;60843;52.062;4.508;2024-02-26T09:52:09;2.70;;;1.67;;
72728;SDS011;60843;52.062;4.508;2024-02-26T09:54:41;2.53;;;1.73;;
72728;SDS011;60843;52.062;4.508;2024-02-26T09:57:07;2.38;;;1.70;;
72728;SDS011;60843;52.062;4.508;2024-02-26T09:59:39;4.63;;;2.17;;
72728;SDS011;60843;52.062;4.508;2024-02-26T10:02:11;0.80;;;0.70;;
72728;SDS011;60843;52.062;4.508;2024-02-26T10:04:39;8.32;;;2.03;;
72728;SDS011;60843;52.062;4.508;2024-02-26T10:07:09;5.45;;;2.67;;
72728;SDS011;60843;52.062;4.508;2024-02-26T10:09:37;4.90;;;2.47;;
72728;SDS011;60843;52.062;4.508;2024-02-26T10:12:03;2.50;;;1.80;;
72728;SDS011;60843;52.062;4.508;2024-02-26T10:14:30;5.30;;;2.10;;
72728;SDS011;60843;52.062;4.508;2024-02-26T10:16:59;2.33;;;1.40;;
72728;SDS011;60843;52.062;4.508;2024-02-26T10:19:29;3.83;;;2.13;;
72728;SDS011;60843;52.062;4.508;2024-02-26T10:22:00;4.93;;;2.10;;
72728;SDS011;60843;52.062;4.508;2024-02-26T10:24:27;3.30;;;2.05;;
72728;SDS011;60843;52.062;4.508;2024-02-26T10:26:59;4.03;;;1.85;;
72728;SDS011;60843;52.062;4.508;2024-02-26T10:29:25;3.28;;;1.92;;
72728;SDS011;60843;52.062;4.508;2024-02-26T10:31:51;2.47;;;2.00;;
72728;SDS011;60843;52.062;4.508;2024-02-26T10:34:17;3.17;;;1.42;;
72728;SDS011;60843;52.062;4.508;2024-02-26T10:36:43;3.38;;;2.30;;
72728;SDS011;60843;52.062;4.508;2024-02-26T10:39:12;2.88;;;1.70;;
72728;SDS011;60843;52.062;4.508;2024-02-26T10:41:43;2.90;;;1.90;;
72728;SDS011;60843;52.062;4.508;2024-02-26T10:44:10;3.80;;;2.08;;
72728;SDS011;60843;52.062;4.508;2024-02-26T10:46:42;2.17;;;1.40;;
72728;SDS011;60843;52.062;4.508;2024-02-26T10:49:17;2.35;;;1.83;;
72728;SDS011;60843;52.062;4.508;2024-02-26T10:51:47;3.08;;;1.95;;
72728;SDS011;60843;52.062;4.508;2024-02-26T10:54:26;2.58;;;1.48;;
72728;SDS011;60843;52.062;4.508;2024-02-26T10:56:58;5.30;;;1.88;;
72728;SDS011;60843;52.062;4.508;2024-02-26T10:59:24;2.00;;;1.10;;
72728;SDS011;60843;52.062;4.508;2024-02-26T11:01:53;4.60;;;2.22;;
72728;SDS011;60843;52.062;4.508;2024-02-26T11:04:20;4.60;;;2.58;;
72728;SDS011;60843;52.062;4.508;2024-02-26T11:06:47;6.63;;;2.60;;
72728;SDS011;60843;52.062;4.508;2024-02-26T11:09:12;4.03;;;2.45;;
72728;SDS011;60843;52.062;4.508;2024-02-26T11:11:38;7.10;;;2.08;;
72728;SDS011;60843;52.062;4.508;2024-02-26T11:14:05;1.98;;;1.60;;
72728;SDS011;60843;52.062;4.508;2024-02-26T11:16:32;3.10;;;1.65;;
72728;SDS011;60843;52.062;4.508;2024-02-26T11:19:42;3.42;;;1.88;;
72728;SDS011;60843;52.062;4.508;2024-02-26T11:22:29;2.13;;;1.33;;
72728;SDS011;60843;52.062;4.508;2024-02-26T11:24:55;2.67;;;1.63;;
72728;SDS011;60843;52.062;4.508;2024-02-26T11:27:43;3.50;;;1.90;;
72728;SDS011;60843;52.062;4.508;2024-02-26T11:30:14;3.60;;;2.40;;
72728;SDS011;60843;52.062;4.508;2024-02-26T11:32:43;2.17;;;1.65;;
72728;SDS011;60843;52.062;4.508;2024-02-26T11:35:11;2.72;;;1.63;;
72728;SDS011;60843;52.062;4.508;2024-02-26T11:37:40;2.03;;;1.27;;
72728;SDS011;60843;52.062;4.508;2024-02-26T11:40:07;6.47;;;1.75;;
72728;SDS011;60843;52.062;4.508;2024-02-26T11:42:36;2.70;;;1.55;;
72728;SDS011;60843;52.062;4.508;2024-02-26T11:48:17;3.17;;;1.80;;
72728;SDS011;60843;52.062;4.508;2024-02-26T11:50:52;2.75;;;1.60;;
72728;SDS011;60843;52.062;4.508;2024-02-26T11:53:23;3.53;;;1.63;;
72728;SDS011;60843;52.062;4.508;2024-02-26T11:58:40;2.92;;;1.60;;
72728;SDS011;60843;52.062;4.508;2024-02-26T12:01:35;3.60;;;2.30;;
72728;SDS011;60843;52.062;4.508;2024-02-26T12:04:13;1.30;;;0.93;;
72728;SDS011;60843;52.062;4.508;2024-02-26T12:06:53;3.05;;;1.45;;
72728;SDS011;60843;52.062;4.508;2024-02-26T12:15:42;2.42;;;1.45;;
72728;SDS011;60843;52.062;4.508;2024-02-26T12:18:10;1.25;;;0.93;;
72728;SDS011;60843;52.062;4.508;2024-02-26T12:20:41;1.25;;;0.80;;
72728;SDS011;60843;52.062;4.508;2024-02-26T12:23:06;3.03;;;1.23;;
72728;SDS011;60843;52.062;4.508;2024-02-26T12:25:32;1.83;;;1.42;;
72728;SDS011;60843;52.062;4.508;2024-02-26T12:31:20;3.78;;;1.75;;
72728;SDS011;60843;52.062;4.508;2024-02-26T12:33:49;4.18;;;1.75;;
72728;SDS011;60843;52.062;4.508;2024-02-26T12:36:15;1.42;;;1.15;;
72728;SDS011;60843;52.062;4.508;2024-02-26T12:38:41;2.90;;;1.63;;
72728;SDS011;60843;52.062;4.508;2024-02-26T12:41:07;1.60;;;1.30;;
72728;SDS011;60843;52.062;4.508;2024-02-26T12:43:33;2.72;;;1.55;;
72728;SDS011;60843;52.062;4.508;2024-02-26T12:45:59;2.08;;;1.00;;
72728;SDS011;60843;52.062;4.508;2024-02-26T12:48:29;1.95;;;1.08;;
72728;SDS011;60843;52.062;4.508;2024-02-26T12:50:54;2.40;;;1.20;;
72728;SDS011;60843;52.062;4.508;2024-02-26T12:53:33;2.10;;;1.30;;
72728;SDS011;60843;52.062;4.508;2024-02-26T12:58:36;3.10;;;1.20;;
72728;SDS011;60843;52.062;4.508;2024-02-26T13:01:04;1.10;;;0.80;;
72728;SDS011;60843;52.062;4.508;2024-02-26T13:03:30;2.05;;;1.35;;
72728;SDS011;60843;52.062;4.508;2024-02-26T13:06:01;2.70;;;1.42;;
72728;SDS011;60843;52.062;4.508;2024-02-26T13:08:32;1.65;;;0.98;;
72728;SDS011;60843;52.062;4.508;2024-02-26T13:11:01;1.23;;;0.98;;
72728;SDS011;60843;52.062;4.508;2024-02-26T13:13:32;2.42;;;1.00;;
72728;SDS011;60843;52.062;4.508;2024-02-26T13:16:05;3.88;;;1.90;;
72728;SDS011;60843;52.062;4.508;2024-02-26T13:18:33;1.42;;;0.93;;
72728;SDS011;60843;52.062;4.508;2024-02-26T13:21:09;2.05;;;1.20;;
72728;SDS011;60843;52.062;4.508;2024-02-26T13:23:41;2.10;;;0.98;;
72728;SDS011;60843;52.062;4.508;2024-02-26T13:29:31;1.50;;;0.90;;
72728;SDS011;60843;52.062;4.508;2024-02-26T13:31:57;1.98;;;1.10;;
72728;SDS011;60843;52.062;4.508;2024-02-26T13:34:28;1.00;;;0.80;;
72728;SDS011;60843;52.062;4.508;2024-02-26T13:37:06;1.58;;;0.65;;
72728;SDS011;60843;52.062;4.508;2024-02-26T13:39:34;1.85;;;1.13;;
72728;SDS011;60843;52.062;4.508;2024-02-26T13:42:02;1.60;;;0.90;;
72728;SDS011;60843;52.062;4.508;2024-02-26T13:44:29;1.55;;;1.17;;
72728;SDS011;60843;52.062;4.508;2024-02-26T13:47:04;2.47;;;1.50;;
72728;SDS011;60843;52.062;4.508;2024-02-26T13:49:30;2.00;;;1.15;;
72728;SDS011;60843;52.062;4.508;2024-02-26T13:51:59;4.20;;;1.20;;
72728;SDS011;60843;52.062;4.508;2024-02-26T13:54:27;1.77;;;0.75;;
72728;SDS011;60843;52.062;4.508;2024-02-26T13:57:00;1.23;;;0.82;;
72728;SDS011;60843;52.062;4.508;2024-02-26T13:59:26;1.48;;;0.98;;
72728;SDS011;60843;52.062;4.508;2024-02-26T14:01:58;1.30;;;1.10;;
72728;SDS011;60843;52.062;4.508;2024-02-26T14:04:32;4.55;;;1.00;;
72728;SDS011;60843;52.062;4.508;2024-02-26T14:06:58;2.67;;;0.93;;
72728;SDS011;60843;52.062;4.508;2024-02-26T14:09:28;1.98;;;0.88;;
72728;SDS011;60843;52.062;4.508;2024-02-26T14:11:55;2.65;;;1.17;;
72728;SDS011;60843;52.062;4.508;2024-02-26T14:14:29;1.92;;;1.05;;
72728;SDS011;60843;52.062;4.508;2024-02-26T14:16:58;3.25;;;0.93;;
72728;SDS011;60843;52.062;4.508;2024-02-26T14:19:25;1.60;;;1.17;;
72728;SDS011;60843;52.062;4.508;2024-02-26T14:21:56;4.75;;;1.55;;
72728;SDS011;60843;52.062;4.508;2024-02-26T14:24:29;2.55;;;0.98;;
72728;SDS011;60843;52.062;4.508;2024-02-26T14:26:55;2.28;;;1.10;;
72728;SDS011;60843;52.062;4.508;2024-02-26T14:31:52;1.48;;;0.98;;
72728;SDS011;60843;52.062;4.508;2024-02-26T14:34:18;2.72;;;1.20;;
72728;SDS011;60843;52.062;4.508;2024-02-26T14:36:44;1.38;;;1.02;;
72728;SDS011;60843;52.062;4.508;2024-02-26T14:39:10;3.92;;;0.98;;
72728;SDS011;60843;52.062;4.508;2024-02-26T14:41:38;1.67;;;1.20;;
72728;SDS011;60843;52.062;4.508;2024-02-26T14:44:10;3.78;;;1.10;;
72728;SDS011;60843;52.062;4.508;2024-02-26T14:46:37;1.83;;;0.82;;
72728;SDS011;60843;52.062;4.508;2024-02-26T14:49:03;2.45;;;1.38;;
72728;SDS011;60843;52.062;4.508;2024-02-26T14:51:32;2.30;;;1.20;;
72728;SDS011;60843;52.062;4.508;2024-02-26T14:54:01;2.63;;;1.30;;
72728;SDS011;60843;52.062;4.508;2024-02-26T14:56:30;3.67;;;1.13;;
72728;SDS011;60843;52.062;4.508;2024-02-26T14:58:59;1.00;;;0.90;;
72728;SDS011;60843;52.062;4.508;2024-02-26T15:01:33;4.03;;;1.42;;
72728;SDS011;60843;52.062;4.508;2024-02-26T15:04:02;2.72;;;1.05;;
72728;SDS011;60843;52.062;4.508;2024-02-26T15:06:31;1.60;;;1.05;;
72728;SDS011;60843;52.062;4.508;2024-02-26T15:09:03;1.92;;;1.00;;
72728;SDS011;60843;52.062;4.508;2024-02-26T15:11:38;2.13;;;1.52;;
72728;SDS011;60843;52.062;4.508;2024-02-26T15:14:05;5.38;;;1.25;;
72728;SDS011;60843;52.062;4.508;2024-02-26T15:16:32;3.33;;;1.38;;
72728;SDS011;60843;52.062;4.508;2024-02-26T15:18:58;2.05;;;1.25;;
72728;SDS011;60843;52.062;4.508;2024-02-26T15:21:24;1.17;;;0.90;;
72728;SDS011;60843;52.062;4.508;2024-02-26T15:23:49;3.28;;;1.35;;
72728;SDS011;60843;52.062;4.508;2024-02-26T15:26:17;2.35;;;1.35;;
72728;SDS011;60843;52.062;4.508;2024-02-26T15:28:47;0.75;;;0.68;;
72728;SDS011;60843;52.062;4.508;2024-02-26T15:31:13;4.15;;;1.30;;
72728;SDS011;60843;52.062;4.508;2024-02-26T15:33:40;2.67;;;1.13;;
72728;SDS011;60843;52.062;4.508;2024-02-26T15:36:07;5.05;;;1.30;;